Time;durP1;ratioP1;P1;durP2;ratioP2;P2;SDS_P1;SDS_P2;PMS_P1;PMS_P2;Temp;Humidity;BMP_temperature;BMP_pressure;BME280_temperature;BME280_humidity;BME280_pressure;Samples;Min_cycle;Max_cycle;Signal;HPM_P1;HPM_P2
2023/09/12 00:02:17;;;;;;;4.80;3.10;;;;;;;17.06;45.16;94047.31;4990477;28;20058;-79
2023/09/12 00:04:42;;;;;;;4.78;3.47;;;;;;;17.10;44.94;94050.09;4994589;28;20038;-77
2023/09/12 00:07:07;;;;;;;6.55;3.03;;;;;;;16.86;45.16;94029.56;4993033;28;20045;-78
2023/09/12 00:09:33;;;;;;;5.68;3.20;;;;;;;17.02;44.69;94043.75;4991749;28;20037;-78
2023/09/12 00:11:58;;;;;;;7.18;3.17;;;;;;;17.01;45.12;94055.63;4995686;28;20034;-78
2023/09/12 00:14:23;;;;;;;5.15;2.75;;;;;;;17.00;45.18;94048.72;4978204;28;20829;-78
2023/09/12 00:16:51;;;;;;;7.80;3.15;;;;;;;17.02;44.69;94051.81;4977444;28;20033;-78
2023/09/12 00:19:16;;;;;;;5.68;2.97;;;;;;;16.92;45.06;94046.97;4993818;28;20133;-78
2023/09/12 00:21:42;;;;;;;4.20;2.30;;;;;;;16.88;45.35;94045.31;4991711;28;20034;-78
2023/09/12 00:24:08;;;;;;;6.30;2.67;;;;;;;16.86;45.39;94053.75;4998188;28;20037;-79
2023/09/12 00:26:33;;;;;;;3.63;3.03;;;;;;;16.72;45.38;94053.41;4996134;28;20029;-77
2023/09/12 00:28:58;;;;;;;7.95;2.65;;;;;;;16.75;45.78;94060.75;4993899;28;20074;-77
2023/09/12 00:31:24;;;;;;;4.40;2.92;;;;;;;16.78;45.77;94054.69;4972001;28;20030;-78
2023/09/12 00:33:50;;;;;;;4.90;2.47;;;;;;;16.77;45.99;94050.41;4983185;28;20049;-78
2023/09/12 00:36:16;;;;;;;4.13;2.50;;;;;;;16.75;45.94;94069.59;4995733;28;20034;-77
2023/09/12 00:38:41;;;;;;;7.43;3.00;;;;;;;16.62;45.94;94056.59;4993766;28;20045;-78
2023/09/12 00:41:07;;;;;;;5.10;2.83;;;;;;;16.67;45.92;94072.44;4976014;28;20077;-78
2023/09/12 00:43:32;;;;;;;3.97;2.92;;;;;;;16.52;46.00;94043.66;4995022;28;20033;-79
2023/09/12 00:45:57;;;;;;;5.25;3.40;;;;;;;16.51;45.93;94053.63;4994054;28;20046;-78
2023/09/12 00:48:23;;;;;;;4.28;2.95;;;;;;;16.47;46.03;94052.75;4994426;28;20038;-78
2023/09/12 00:50:50;;;;;;;6.38;2.50;;;;;;;16.52;46.00;94062.47;4993097;28;20022;-78
2023/09/12 00:53:16;;;;;;;5.35;2.85;;;;;;;16.54;46.17;94065.56;4992761;28;20045;-78
2023/09/12 00:55:47;;;;;;;7.35;3.47;;;;;;;16.52;46.36;94071.28;4993956;28;20045;-77
2023/09/12 00:58:13;;;;;;;4.35;2.90;;;;;;;16.45;46.63;94073.00;4981781;28;20049;-78
2023/09/12 01:00:41;;;;;;;5.65;3.53;;;;;;;16.35;46.49;94060.84;4991291;28;20998;-77
2023/09/12 01:03:06;;;;;;;3.60;2.50;;;;;;;16.41;46.59;94074.81;4996036;28;20076;-77
2023/09/12 01:05:32;;;;;;;7.38;2.90;;;;;;;16.35;46.33;94062.75;4993504;28;20228;-78
2023/09/12 01:07:59;;;;;;;6.35;3.80;;;;;;;16.18;46.85;94045.78;4996008;28;20115;-78
2023/09/12 01:10:25;;;;;;;6.18;3.30;;;;;;;16.29;46.91;94072.91;4999016;28;20037;-79
2023/09/12 01:12:52;;;;;;;17.05;3.25;;;;;;;16.29;46.85;94084.44;4992028;28;20426;-78
2023/09/12 01:15:17;;;;;;;5.47;3.08;;;;;;;16.28;46.74;94077.50;4997918;28;20062;-78
2023/09/12 01:17:44;;;;;;;5.68;3.08;;;;;;;16.25;46.92;94072.84;4996940;28;20104;-78
2023/09/12 01:20:38;;;;;;;8.90;2.80;;;;;;;16.29;46.83;94083.66;4997387;28;20038;-77
2023/09/12 01:23:24;;;;;;;4.97;2.88;;;;;;;16.23;47.10;94091.16;4977005;28;20098;-78
2023/09/12 01:26:42;;;;;;;4.93;2.78;;;;;;;16.26;46.88;94078.97;4980197;28;20047;-78
2023/09/12 01:29:10;;;;;;;3.65;2.75;;;;;;;16.16;46.91;94079.47;4977150;28;20510;-78
2023/09/12 01:31:37;;;;;;;11.02;3.08;;;;;;;16.13;47.16;94080.94;4991149;28;20037;-79
2023/09/12 01:34:12;;;;;;;5.45;2.65;;;;;;;16.09;47.30;94085.41;4996002;28;20030;-78
2023/09/12 01:36:37;;;;;;;;;;;;;;;16.07;47.34;94089.56;4998355;28;20038;-78
2023/09/12 01:39:03;;;;;;;10.40;2.65;;;;;;;16.02;47.46;94090.59;4997498;28;19921;-79
2023/09/12 01:41:31;;;;;;;3.95;2.60;;;;;;;16.01;47.49;94089.03;4998116;28;20424;-77
2023/09/12 01:43:59;;;;;;;5.75;2.90;;;;;;;15.98;47.48;94083.56;5000062;28;20042;-79
2023/09/12 01:46:26;;;;;;;3.97;2.88;;;;;;;15.90;47.60;94082.56;4978325;28;20044;-79
2023/09/12 01:48:54;;;;;;;5.07;3.72;;;;;;;15.89;47.43;94081.78;4980603;28;20041;-79
2023/09/12 01:51:21;;;;;;;4.72;2.78;;;;;;;15.93;47.74;94083.81;4996355;28;20038;-78
2023/09/12 01:53:47;;;;;;;5.05;3.25;;;;;;;15.88;47.56;94077.56;4993519;28;20432;-77
2023/09/12 01:56:13;;;;;;;5.75;3.17;;;;;;;15.92;47.33;94083.00;4997487;28;20033;-77
2023/09/12 01:58:39;;;;;;;8.20;3.53;;;;;;;15.90;47.69;94093.28;4995224;28;20042;-76
2023/09/12 02:01:04;;;;;;;5.03;3.47;;;;;;;15.93;47.62;94095.31;4996667;28;20041;-78
2023/09/12 02:03:30;;;;;;;5.13;3.00;;;;;;;15.94;47.62;94098.78;4996185;28;20060;-79
2023/09/12 02:05:56;;;;;;;4.53;3.25;;;;;;;15.89;47.66;94092.50;4995798;28;20094;-78
2023/09/12 02:08:22;;;;;;;4.18;2.60;;;;;;;15.89;47.35;94097.09;4995407;28;20024;-78
2023/09/12 02:10:47;;;;;;;7.18;2.72;;;;;;;15.94;47.49;94101.47;4995417;28;20038;-77
2023/09/12 02:13:13;;;;;;;4.60;2.60;;;;;;;15.95;47.54;94103.00;4999026;28;20605;-77
2023/09/12 02:15:38;;;;;;;3.72;3.03;;;;;;;15.87;47.56;94085.94;4994965;28;20166;-79
2023/09/12 02:18:04;;;;;;;4.68;3.47;;;;;;;15.73;47.39;94080.16;4996537;28;20118;-77
2023/09/12 02:20:29;;;;;;;3.92;2.83;;;;;;;15.89;47.34;94091.72;4995799;28;20583;-77
2023/09/12 02:22:55;;;;;;;6.25;2.75;;;;;;;15.91;47.44;94092.19;4996356;28;20437;-78
2023/09/12 02:25:20;;;;;;;7.00;2.95;;;;;;;15.85;47.38;94093.53;4996371;28;20064;-78
2023/09/12 02:27:45;;;;;;;4.50;2.83;;;;;;;15.68;47.23;94058.94;4997299;28;20683;-78
2023/09/12 02:30:11;;;;;;;4.78;3.15;;;;;;;15.84;47.11;94089.31;4995165;28;20037;-77
2023/09/12 02:32:36;;;;;;;4.43;2.47;;;;;;;15.80;47.03;94083.81;4998047;28;20022;-80
2023/09/12 02:35:02;;;;;;;3.33;3.03;;;;;;;15.76;47.41;94093.66;4993566;28;20064;-78
2023/09/12 02:37:28;;;;;;;5.22;2.75;;;;;;;15.61;47.47;94080.16;4996742;28;20121;-78
2023/09/12 02:39:53;;;;;;;4.65;2.90;;;;;;;15.59;47.66;94093.94;4995885;28;20038;-78
2023/09/12 02:42:19;;;;;;;3.72;2.33;;;;;;;15.64;47.02;94085.66;4995063;28;20042;-77
2023/09/12 02:44:44;;;;;;;3.47;2.60;;;;;;;15.62;47.65;94087.09;4980424;28;20096;-78
2023/09/12 02:47:10;;;;;;;4.53;2.90;;;;;;;15.69;47.56;94098.03;4999969;28;20500;-77
2023/09/12 02:49:35;;;;;;;4.43;2.88;;;;;;;15.70;47.14;94095.00;4996003;28;20034;-76
2023/09/12 02:52:00;;;;;;;6.50;3.00;;;;;;;15.68;47.16;94099.16;4976753;28;20037;-77
2023/09/12 02:54:26;;;;;;;6.13;2.67;;;;;;;15.68;47.40;94097.25;4996476;28;20974;-75
2023/09/12 02:56:51;;;;;;;5.85;2.42;;;;;;;15.59;47.53;94087.78;4997297;28;20379;-79
2023/09/12 02:59:17;;;;;;;5.97;3.30;;;;;;;15.61;47.29;94082.84;4992911;28;20510;-79
2023/09/12 03:01:43;;;;;;;4.97;2.47;;;;;;;15.64;47.42;94090.22;4995402;28;20141;-79
2023/09/12 03:04:08;;;;;;;4.75;2.65;;;;;;;15.61;47.39;94090.88;4993840;28;20117;-78
2023/09/12 03:06:33;;;;;;;6.03;3.15;;;;;;;15.59;47.27;94093.16;4993367;28;20047;-79
2023/09/12 03:08:59;;;;;;;4.72;3.17;;;;;;;15.58;47.58;94089.69;4992445;28;20040;-76
2023/09/12 03:11:27;;;;;;;6.05;2.80;;;;;;;15.61;47.77;94093.56;4997702;28;20029;-78
2023/09/12 03:13:53;;;;;;;6.65;3.40;;;;;;;15.56;47.41;94085.75;4992850;28;20517;-78
2023/09/12 03:16:18;;;;;;;5.13;3.20;;;;;;;15.49;47.62;94080.19;4995928;28;20041;-78
2023/09/12 03:18:43;;;;;;;6.57;2.88;;;;;;;15.53;47.66;94099.84;4994145;28;20037;-79
2023/09/12 03:21:09;;;;;;;3.38;2.90;;;;;;;15.52;47.59;94095.59;4994825;28;20105;-79
2023/09/12 03:23:34;;;;;;;4.38;2.40;;;;;;;15.36;48.12;94082.84;4994984;28;20025;-78
2023/09/12 03:26:04;;;;;;;5.43;3.08;;;;;;;15.39;47.74;94095.59;4978075;28;20049;-78
2023/09/12 03:28:30;;;;;;;5.70;2.88;;;;;;;15.40;48.02;94101.75;4993016;28;20117;-78
2023/09/12 03:31:13;;;;;;;5.20;2.88;;;;;;;15.39;47.94;94100.94;4977926;28;20036;-80
2023/09/12 03:33:40;;;;;;;3.30;2.85;;;;;;;15.37;48.30;94099.72;4994902;28;20045;-75
2023/09/12 03:36:06;;;;;;;4.32;3.38;;;;;;;15.36;48.28;94101.59;4995163;28;20037;-78
2023/09/12 03:38:32;;;;;;;5.38;2.85;;;;;;;15.30;48.40;94099.50;4997001;28;20017;-78
2023/09/12 03:40:57;;;;;;;4.57;2.65;;;;;;;15.22;48.58;94101.16;4997046;28;20037;-79
2023/09/12 03:43:23;;;;;;;8.88;2.88;;;;;;;15.03;48.51;94082.19;4996679;28;20561;-78
2023/09/12 03:45:48;;;;;;;3.10;2.78;;;;;;;15.09;48.63;94104.97;4993958;28;20046;-76
2023/09/12 03:48:14;;;;;;;6.60;3.38;;;;;;;15.12;48.59;94098.91;4996034;28;20488;-78
2023/09/12 03:50:39;;;;;;;4.60;2.70;;;;;;;15.16;48.39;94094.47;4994644;28;20394;-78
2023/09/12 03:53:05;;;;;;;5.40;3.20;;;;;;;15.18;48.46;94097.59;4993770;28;20045;-78
2023/09/12 03:55:30;;;;;;;3.90;3.10;;;;;;;15.24;48.70;94108.88;4991982;28;20054;-78
2023/09/12 03:57:56;;;;;;;3.65;2.53;;;;;;;15.15;48.69;94103.63;4995624;28;20038;-79
2023/09/12 04:00:21;;;;;;;4.63;3.03;;;;;;;15.12;48.68;94111.53;4993720;28;20033;-78
2023/09/12 04:02:47;;;;;;;4.60;3.03;;;;;;;14.93;48.94;94090.66;4991806;28;20806;-78
2023/09/12 04:05:12;;;;;;;3.55;2.65;;;;;;;15.01;49.61;94108.50;4996416;28;20029;-76
2023/09/12 04:07:38;;;;;;;5.85;3.35;;;;;;;15.04;49.08;94121.25;4974447;28;20103;-79
2023/09/12 04:10:03;;;;;;;7.50;3.38;;;;;;;14.98;49.10;94109.97;4995652;28;20080;-78
2023/09/12 04:12:29;;;;;;;6.85;3.03;;;;;;;14.92;49.36;94097.13;4995690;28;20042;-78
2023/09/12 04:14:57;;;;;;;16.10;4.18;;;;;;;15.03;49.42;94115.09;4994356;28;20018;-78
2023/09/12 04:17:22;;;;;;;5.88;3.40;;;;;;;14.95;49.26;94099.16;4993414;28;20065;-78
2023/09/12 04:19:48;;;;;;;5.47;3.20;;;;;;;14.96;49.52;94104.16;4993185;28;20843;-78
2023/09/12 04:22:13;;;;;;;5.75;3.72;;;;;;;14.91;49.57;94106.28;4995284;28;20250;-79
2023/09/12 04:24:39;;;;;;;11.48;7.00;;;;;;;15.01;49.45;94116.53;4995495;28;20034;-75
2023/09/12 04:27:04;;;;;;;10.00;6.55;;;;;;;14.88;49.78;94106.94;4976423;28;20143;-79
2023/09/12 04:29:33;;;;;;;17.95;8.40;;;;;;;14.95;49.71;94117.91;4996160;28;20030;-77
2023/09/12 04:31:59;;;;;;;26.75;11.85;;;;;;;14.93;49.81;94106.72;4993535;28;20034;-78
2023/09/12 04:34:25;;;;;;;38.58;13.65;;;;;;;14.95;50.01;94116.00;4994856;28;20044;-79
2023/09/12 04:36:51;;;;;;;20.80;11.30;;;;;;;14.87;49.79;94102.69;4994828;28;20030;-79
2023/09/12 04:39:17;;;;;;;17.35;9.88;;;;;;;14.94;49.96;94109.06;4994525;28;20031;-78
2023/09/12 04:41:42;;;;;;;13.60;6.72;;;;;;;15.07;49.93;94125.16;4995766;28;20520;-78
2023/09/12 04:44:07;;;;;;;13.88;5.50;;;;;;;15.13;50.23;94123.81;4996426;28;20088;-78
2023/09/12 04:46:33;;;;;;;17.55;5.65;;;;;;;15.20;50.19;94124.84;4998101;28;20038;-77
2023/09/12 04:48:59;;;;;;;8.85;5.30;;;;;;;15.17;50.56;94098.69;4998739;28;20774;-78
2023/09/12 04:51:24;;;;;;;8.70;5.05;;;;;;;15.40;50.19;94123.94;4993199;28;20121;-78
2023/09/12 04:53:51;;;;;;;9.60;4.20;;;;;;;15.38;50.39;94122.72;5000784;28;20581;-79
2023/09/12 04:56:17;;;;;;;8.80;4.88;;;;;;;15.39;49.76;94113.56;4996342;28;20534;-76
2023/09/12 04:58:42;;;;;;;12.43;5.63;;;;;;;15.57;49.51;94127.53;4994363;28;20042;-77
2023/09/12 05:01:08;;;;;;;7.53;5.22;;;;;;;15.57;49.17;94119.50;4996955;28;20137;-77
2023/09/12 05:03:35;;;;;;;10.68;5.00;;;;;;;15.70;48.78;94126.41;4997740;28;20033;-76
2023/09/12 05:06:00;;;;;;;8.48;5.40;;;;;;;15.76;48.23;94115.13;4996300;28;20458;-76
2023/09/12 05:08:26;;;;;;;9.50;5.30;;;;;;;15.80;48.24;94115.22;4978949;28;20053;-76
2023/09/12 05:10:51;;;;;;;6.53;4.90;;;;;;;15.90;48.08;94120.09;4992860;28;21079;-76
2023/09/12 05:13:17;;;;;;;14.43;5.38;;;;;;;15.91;48.01;94110.94;4997801;28;20034;-77
2023/09/12 05:15:42;;;;;;;18.55;6.50;;;;;;;16.11;47.56;94130.69;4987069;28;20180;-76
2023/09/12 05:18:08;;;;;;;19.85;6.57;;;;;;;16.11;47.55;94120.75;4998834;28;20787;-75
2023/09/12 05:20:34;;;;;;;31.52;6.63;;;;;;;16.23;46.95;94128.75;4999130;28;20034;-76
2023/09/12 05:22:59;;;;;;;15.90;5.93;;;;;;;16.23;47.05;94123.38;4996971;28;20037;-76
2023/09/12 05:25:26;;;;;;;13.15;6.03;;;;;;;16.20;46.91;94110.66;4993858;28;20041;-76
2023/09/12 05:27:52;;;;;;;11.93;5.53;;;;;;;16.43;46.49;94126.25;4992560;28;20053;-76
2023/09/12 05:30:17;;;;;;;12.57;5.20;;;;;;;16.41;46.86;94123.13;4997327;28;20037;-79
2023/09/12 05:32:43;;;;;;;11.88;5.68;;;;;;;16.49;46.82;94130.25;4993666;28;20030;-78
2023/09/12 05:35:08;;;;;;;13.02;6.18;;;;;;;16.47;46.14;94135.19;4996816;28;20132;-79
2023/09/12 05:37:34;;;;;;;9.40;5.43;;;;;;;16.54;46.22;94127.31;4995337;28;20069;-78
2023/09/12 05:39:59;;;;;;;16.35;6.05;;;;;;;16.57;45.79;94132.03;4989448;28;20564;-78
2023/09/12 05:42:24;;;;;;;11.77;6.40;;;;;;;16.65;46.34;94141.81;4969796;28;20048;-78
2023/09/12 05:44:53;;;;;;;10.60;5.45;;;;;;;16.67;46.79;94142.28;4996810;28;20021;-79
2023/09/12 05:47:19;;;;;;;17.35;6.57;;;;;;;16.62;46.21;94134.47;4978414;28;20046;-78
2023/09/12 05:49:44;;;;;;;15.43;6.93;;;;;;;16.75;46.26;94144.00;4998612;28;20030;-79
2023/09/12 05:52:10;;;;;;;16.65;6.75;;;;;;;16.64;46.32;94132.97;4997730;28;20034;-79
2023/09/12 05:54:36;;;;;;;14.40;6.20;;;;;;;16.67;47.05;94124.22;4995583;28;20129;-79
2023/09/12 05:57:02;;;;;;;11.65;6.90;;;;;;;16.47;48.22;94133.28;4998301;28;20022;-78
2023/09/12 05:59:27;;;;;;;15.35;6.47;;;;;;;16.57;47.97;94126.66;4997290;28;20512;-80
2023/09/12 06:01:53;;;;;;;11.93;7.55;;;;;;;16.59;48.08;94135.13;4979478;28;20065;-79
2023/09/12 06:04:19;;;;;;;11.57;7.00;;;;;;;16.78;47.54;94137.94;4974662;28;20035;-78
2023/09/12 06:06:46;;;;;;;25.90;7.90;;;;;;;16.87;47.45;94129.72;4977296;28;20043;-78
2023/09/12 06:09:11;;;;;;;11.45;6.68;;;;;;;16.89;47.75;94133.63;4975411;28;20389;-78
2023/09/12 06:11:36;;;;;;;19.35;7.43;;;;;;;16.97;47.54;94142.66;4975292;28;20032;-78
2023/09/12 06:14:02;;;;;;;16.05;6.95;;;;;;;17.13;46.93;94143.44;4976020;28;20970;-79
2023/09/12 06:16:27;;;;;;;10.55;6.75;;;;;;;17.16;46.33;94138.19;4976988;28;20038;-79
2023/09/12 06:18:53;;;;;;;10.43;6.45;;;;;;;17.25;46.31;94148.78;4975251;28;20128;-80
2023/09/12 06:21:21;;;;;;;15.35;8.07;;;;;;;17.38;45.16;94141.41;4973108;28;20465;-78
2023/09/12 06:23:47;;;;;;;10.50;6.50;;;;;;;17.42;45.33;94150.31;4978022;28;20070;-78
2023/09/12 06:26:12;;;;;;;12.45;7.05;;;;;;;17.44;45.36;94153.47;4993379;28;20544;-80
2023/09/12 06:28:38;;;;;;;17.20;7.95;;;;;;;17.50;44.97;94147.44;4974202;28;20046;-79
2023/09/12 06:31:03;;;;;;;14.57;7.93;;;;;;;17.56;45.39;94156.81;4977133;28;20104;-78
2023/09/12 06:33:29;;;;;;;16.13;7.38;;;;;;;17.53;44.99;94170.19;4990329;28;20034;-79
2023/09/12 06:35:54;;;;;;;12.10;7.78;;;;;;;17.58;44.20;94170.72;4975364;28;20379;-79
2023/09/12 06:38:23;;;;;;;11.57;6.75;;;;;;;17.68;44.27;94164.03;4972631;28;20416;-78
2023/09/12 06:40:49;;;;;;;13.50;7.57;;;;;;;17.49;44.41;94145.13;4977206;28;20075;-78
2023/09/12 06:43:14;;;;;;;18.50;7.50;;;;;;;17.57;43.81;94149.53;4974240;28;20177;-78
2023/09/12 06:45:42;;;;;;;14.15;7.78;;;;;;;17.78;43.37;94163.50;4976863;28;20042;-77
2023/09/12 06:48:08;;;;;;;15.32;7.90;;;;;;;17.82;43.83;94163.56;4973787;28;20029;-78
2023/09/12 06:50:34;;;;;;;10.45;7.20;;;;;;;17.82;44.44;94164.34;4974932;28;20088;-79
2023/09/12 06:52:59;;;;;;;15.38;7.53;;;;;;;17.93;44.18;94162.72;4975032;28;20135;-79
2023/09/12 06:55:25;;;;;;;18.05;7.90;;;;;;;18.00;43.25;94162.84;4990581;28;20038;-79
2023/09/12 06:57:50;;;;;;;20.92;9.07;;;;;;;17.90;43.25;94152.59;4972319;28;20084;-79
2023/09/12 07:00:16;;;;;;;22.10;9.02;;;;;;;17.96;43.27;94162.00;4971569;28;20074;-78
2023/09/12 07:02:42;;;;;;;15.50;9.77;;;;;;;17.65;45.06;94137.81;4978640;28;20115;-76
2023/09/12 07:05:07;;;;;;;15.65;8.60;;;;;;;17.96;43.52;94164.69;4985686;28;20549;-78
2023/09/12 07:07:33;;;;;;;19.25;9.57;;;;;;;18.01;44.56;94164.44;4985146;28;20518;-79
2023/09/12 07:09:59;;;;;;;15.13;8.00;;;;;;;18.23;44.32;94172.97;4987399;28;20033;-78
2023/09/12 07:12:25;;;;;;;16.98;8.65;;;;;;;18.22;43.81;94157.94;4986716;28;20750;-78
2023/09/12 07:14:51;;;;;;;15.45;7.78;;;;;;;18.29;42.92;94147.31;4987527;28;20557;-79
2023/09/12 07:17:17;;;;;;;17.05;8.65;;;;;;;18.54;42.56;94167.44;4986733;28;20048;-76
2023/09/12 07:19:43;;;;;;;14.98;8.25;;;;;;;18.64;41.90;94180.34;4986848;28;20034;-78
2023/09/12 07:22:08;;;;;;;18.45;9.32;;;;;;;18.40;43.34;94162.56;4986517;28;20034;-79
2023/09/12 07:24:34;;;;;;;17.20;8.23;;;;;;;18.49;43.15;94159.66;4988969;28;20042;-78
2023/09/12 07:26:59;;;;;;;17.27;9.25;;;;;;;18.66;41.71;94170.03;4986722;28;20757;-79
2023/09/12 07:29:24;;;;;;;20.80;8.98;;;;;;;18.78;42.63;94167.19;4986129;28;20085;-78
2023/09/12 07:31:53;;;;;;;21.55;8.43;;;;;;;18.94;42.46;94169.81;4986451;28;20040;-78
2023/09/12 07:34:20;;;;;;;14.88;8.57;;;;;;;19.14;41.59;94173.25;4984282;28;20045;-76
2023/09/12 07:36:45;;;;;;;17.45;8.32;;;;;;;19.24;40.99;94176.13;4988563;28;20034;-79
2023/09/12 07:39:11;;;;;;;15.68;8.15;;;;;;;19.24;40.89;94169.97;4986747;28;20474;-79
2023/09/12 07:41:36;;;;;;;17.90;8.25;;;;;;;19.08;41.47;94158.50;4989477;28;20032;-78
2023/09/12 07:44:04;;;;;;;14.32;6.65;;;;;;;19.17;39.78;94167.13;4995264;28;20460;-79
2023/09/12 07:46:30;;;;;;;17.45;7.85;;;;;;;19.33;40.17;94170.50;4992230;28;20042;-78
2023/09/12 07:48:55;;;;;;;18.35;8.18;;;;;;;19.24;40.42;94161.88;4995192;28;20453;-79
2023/09/12 07:51:22;;;;;;;12.45;7.65;;;;;;;19.17;40.74;94150.94;4994761;28;20799;-78
2023/09/12 07:53:48;;;;;;;15.82;8.10;;;;;;;19.28;40.69;94165.41;4994924;28;20053;-77
2023/09/12 07:56:13;;;;;;;13.38;7.95;;;;;;;19.22;39.57;94169.53;4995078;28;21024;-77
2023/09/12 07:58:39;;;;;;;14.13;7.20;;;;;;;19.41;39.88;94161.38;4993799;28;20050;-79
2023/09/12 08:01:08;;;;;;;15.85;7.43;;;;;;;19.36;39.64;94158.97;4990843;28;20042;-80
2023/09/12 08:03:35;;;;;;;20.42;7.88;;;;;;;19.50;38.72;94170.06;4991617;28;20038;-79
2023/09/12 08:06:00;;;;;;;12.60;6.68;;;;;;;19.54;39.49;94173.59;4982244;28;20030;-77
2023/09/12 08:08:26;;;;;;;10.75;6.05;;;;;;;19.65;39.22;94166.44;4975083;28;20029;-78
2023/09/12 08:10:51;;;;;;;10.75;6.28;;;;;;;19.72;40.00;94163.84;4993073;28;21215;-78
2023/09/12 08:13:16;;;;;;;11.65;5.68;;;;;;;19.76;39.24;94169.28;4993129;28;20037;-78
2023/09/12 08:15:42;;;;;;;11.65;6.25;;;;;;;19.62;39.14;94155.59;4976416;28;20168;-77
2023/09/12 08:18:07;;;;;;;14.25;5.75;;;;;;;19.74;38.90;94156.19;4998906;28;20596;-78
2023/09/12 08:20:33;;;;;;;14.90;6.82;;;;;;;19.84;38.69;94159.41;4979962;28;20043;-78
2023/09/12 08:22:58;;;;;;;14.25;6.90;;;;;;;19.95;38.80;94166.50;4981868;28;20111;-77
2023/09/12 08:25:24;;;;;;;13.05;6.20;;;;;;;19.82;39.00;94169.78;4980509;28;20038;-78
2023/09/12 08:27:50;;;;;;;13.65;7.30;;;;;;;19.91;39.69;94173.00;4998045;28;20030;-78
2023/09/12 08:30:16;;;;;;;14.63;6.13;;;;;;;19.99;38.41;94163.88;4996608;28;20028;-77
2023/09/12 08:32:43;;;;;;;16.80;6.18;;;;;;;20.14;37.25;94169.09;4997552;28;20544;-78
2023/09/12 08:35:13;;;;;;;7.03;4.65;;;;;;;20.12;38.46;94160.59;4996408;28;20045;-78
2023/09/12 08:37:40;;;;;;;11.15;5.93;;;;;;;20.10;37.36;94152.06;4997515;28;20149;-76
2023/09/12 08:40:08;;;;;;;9.02;5.00;;;;;;;20.31;38.97;94154.31;4970287;28;20647;-77
2023/09/12 08:42:40;;;;;;;14.70;5.13;;;;;;;20.45;38.08;94154.50;4990810;28;20475;-77
2023/09/12 08:45:12;;;;;;;12.18;4.45;;;;;;;20.39;37.78;94138.97;4974451;28;20108;-78
2023/09/12 08:47:40;;;;;;;10.38;5.30;;;;;;;20.48;37.56;94147.59;4994240;28;20437;-77
2023/09/12 08:50:09;;;;;;;12.13;4.45;;;;;;;20.38;37.49;94129.31;5000963;28;20544;-79
2023/09/12 08:52:35;;;;;;;8.75;5.10;;;;;;;20.32;36.91;94147.00;4999526;28;20532;-78
2023/09/12 08:55:00;;;;;;;10.02;5.80;;;;;;;20.44;37.48;94147.53;4999805;28;20061;-78
2023/09/12 08:57:27;;;;;;;15.27;4.65;;;;;;;20.37;37.18;94142.03;5005352;28;20068;-78
2023/09/12 08:59:53;;;;;;;8.45;3.85;;;;;;;20.36;37.91;94134.31;4999025;28;20100;-79
2023/09/12 09:02:19;;;;;;;8.10;4.35;;;;;;;20.46;37.47;94139.84;4997728;28;20050;-78
2023/09/12 09:04:46;;;;;;;13.63;4.68;;;;;;;20.65;36.81;94151.63;4994594;28;20030;-79
2023/09/12 09:07:13;;;;;;;9.65;3.97;;;;;;;20.67;36.22;94143.94;4988171;28;20057;-79
2023/09/12 09:09:39;;;;;;;11.43;3.92;;;;;;;20.62;36.33;94139.66;4994091;28;20052;-79
2023/09/12 09:12:10;;;;;;;8.05;4.55;;;;;;;20.73;36.63;94147.88;5002281;28;20030;-79
2023/09/12 09:14:36;;;;;;;7.53;4.05;;;;;;;20.78;36.57;94145.59;4999080;28;20052;-79
2023/09/12 09:17:01;;;;;;;7.82;4.13;;;;;;;20.56;36.52;94081.66;5001327;28;20035;-78
2023/09/12 09:19:44;;;;;;;13.63;4.85;;;;;;;20.98;35.32;94147.00;4995882;28;20037;-78
2023/09/12 09:22:10;;;;;;;15.18;6.25;;;;;;;20.92;35.53;94131.53;4996442;28;20087;-79
2023/09/12 09:24:35;;;;;;;8.23;4.28;;;;;;;21.03;35.87;94141.28;4996776;28;20046;-78
2023/09/12 09:27:01;;;;;;;9.63;4.03;;;;;;;21.11;35.88;94125.91;4996719;28;20033;-78
2023/09/12 09:29:32;;;;;;;11.00;4.03;;;;;;;21.05;36.22;94138.22;4981217;28;20492;-79
2023/09/12 09:32:00;;;;;;;12.68;4.35;;;;;;;21.18;37.28;94131.38;4994911;28;20049;-78
2023/09/12 09:34:28;;;;;;;10.20;4.28;;;;;;;21.24;36.02;94129.91;4996825;28;20940;-78
2023/09/12 09:36:54;;;;;;;10.90;4.35;;;;;;;21.32;35.74;94130.72;4997908;28;20033;-79
2023/09/12 09:39:26;;;;;;;4.72;3.33;;;;;;;21.31;35.89;94124.56;4978522;28;20048;-77
2023/09/12 09:41:54;;;;;;;10.45;4.05;;;;;;;21.41;35.41;94129.25;4997703;28;20113;-77
2023/09/12 09:44:22;;;;;;;7.10;3.58;;;;;;;21.45;35.62;94123.91;4997831;28;20135;-77
2023/09/12 09:46:54;;;;;;;8.23;3.78;;;;;;;21.65;36.47;94116.34;4997874;28;20370;-78
2023/09/12 09:49:21;;;;;;;10.90;3.97;;;;;;;21.67;36.96;94111.31;4995552;28;20034;-78
2023/09/12 09:51:46;;;;;;;10.63;3.72;;;;;;;21.80;35.75;94112.59;4996812;28;20128;-77
2023/09/12 09:54:12;;;;;;;6.18;3.55;;;;;;;21.84;37.49;94099.84;4996620;28;20087;-78
2023/09/12 09:56:49;;;;;;;8.73;3.55;;;;;;;21.88;35.75;94111.47;4995147;28;20018;-79
2023/09/12 09:59:17;;;;;;;5.30;3.67;;;;;;;21.85;35.51;94106.81;4996102;28;20601;-77
2023/09/12 10:01:45;;;;;;;6.65;4.47;;;;;;;21.94;35.08;94109.19;4997034;28;20053;-78
2023/09/12 10:04:10;;;;;;;10.48;3.28;;;;;;;22.07;35.46;94105.78;4994135;28;20034;-78
2023/09/12 10:06:36;;;;;;;8.60;3.22;;;;;;;22.14;35.33;94107.75;4995504;28;20045;-78
2023/09/12 10:09:07;;;;;;;6.55;3.08;;;;;;;22.12;34.18;94105.44;4995327;28;20026;-79
2023/09/12 10:11:33;;;;;;;12.60;3.83;;;;;;;22.12;34.15;94101.94;4996509;28;20034;-77
2023/09/12 10:14:02;;;;;;;5.38;2.95;;;;;;;22.25;34.20;94103.97;4996977;28;20034;-78
2023/09/12 10:16:32;;;;;;;7.38;4.25;;;;;;;22.24;33.82;94098.94;4995781;28;20038;-79
2023/09/12 10:19:16;;;;;;;7.45;3.90;;;;;;;22.33;34.29;94095.88;4994224;28;20446;-79
2023/09/12 10:21:44;;;;;;;7.95;3.90;;;;;;;22.24;33.90;94096.25;4985070;28;20152;-77
2023/09/12 10:24:10;;;;;;;15.93;3.92;;;;;;;22.26;34.45;94086.56;4988185;28;20056;-76
2023/09/12 10:26:39;;;;;;;7.75;3.60;;;;;;;22.23;34.68;94076.50;4986560;28;20025;-78
2023/09/12 10:29:04;;;;;;;9.50;4.00;;;;;;;22.33;34.55;94085.03;4987320;28;20038;-79
2023/09/12 10:31:33;;;;;;;8.48;3.38;;;;;;;22.31;34.71;94088.13;4986492;28;20041;-78
2023/09/12 10:33:59;;;;;;;7.93;4.45;;;;;;;22.34;36.54;94086.59;4984526;28;20117;-78
2023/09/12 10:36:26;;;;;;;10.40;4.00;;;;;;;22.32;34.54;94084.28;4987180;28;20030;-78
2023/09/12 10:38:53;;;;;;;7.57;3.95;;;;;;;22.29;34.51;94074.94;4969203;28;20032;-76
2023/09/12 10:41:21;;;;;;;7.10;3.75;;;;;;;22.38;34.36;94071.13;4989832;28;20053;-79
2023/09/12 10:43:52;;;;;;;11.27;4.20;;;;;;;22.42;33.90;94071.91;4995136;28;20045;-79
2023/09/12 10:46:17;;;;;;;7.88;3.08;;;;;;;22.40;33.72;94069.59;4977727;28;20503;-78
2023/09/12 10:48:43;;;;;;;10.25;3.25;;;;;;;22.44;33.46;94069.63;4994707;28;20176;-78
2023/09/12 10:51:10;;;;;;;9.18;4.47;;;;;;;22.60;34.13;94076.22;4995905;28;20406;-79
2023/09/12 10:53:36;;;;;;;11.77;3.42;;;;;;;22.62;34.44;94071.22;4991458;28;20038;-78
2023/09/12 10:56:21;;;;;;;12.15;4.35;;;;;;;22.66;34.90;94060.38;4993439;28;20041;-79
2023/09/12 10:59:06;;;;;;;11.07;3.88;;;;;;;22.63;34.31;94072.75;4972634;28;20038;-77
2023/09/12 11:01:32;;;;;;;;;;;;;;;22.72;33.73;94066.97;4985638;28;20093;-79
2023/09/12 11:03:57;;;;;;;5.80;3.65;;;;;;;22.88;34.30;94058.53;4976456;28;20747;-79
2023/09/12 11:06:29;;;;;;;7.45;4.63;;;;;;;22.88;34.23;94050.41;4992265;28;20038;-79
2023/09/12 11:09:13;;;;;;;13.30;4.07;;;;;;;22.99;34.07;94051.94;4990871;28;20329;-78
2023/09/12 11:11:43;;;;;;;12.52;4.18;;;;;;;22.96;34.00;94046.53;4983069;28;20046;-78
2023/09/12 11:14:09;;;;;;;6.82;3.80;;;;;;;23.11;33.58;94048.88;4966822;28;20033;-77
2023/09/12 11:16:35;;;;;;;8.63;3.72;;;;;;;23.28;33.29;94051.94;4982793;28;20048;-76
2023/09/12 11:19:23;;;;;;;6.18;3.65;;;;;;;23.40;33.31;94043.44;4967331;28;20042;-77
2023/09/12 11:21:55;;;;;;;8.43;3.50;;;;;;;23.38;33.63;94032.97;4962251;28;20042;-78
2023/09/12 11:24:21;;;;;;;20.45;3.50;;;;;;;23.10;33.01;94047.31;4988895;28;20691;-78
2023/09/12 11:27:01;;;;;;;7.40;3.47;;;;;;;22.98;33.27;94039.53;4986844;28;20037;-78
2023/09/12 11:29:40;;;;;;;8.32;3.72;;;;;;;22.99;33.52;94011.25;4952762;28;20046;-79